createdAt,value
2022-12-04T00:01:59.469Z,9.60
2022-12-04T00:12:02.327Z,10.00
2022-12-04T00:22:05.347Z,9.97
2022-12-04T00:32:07.900Z,10.63
2022-12-04T00:42:10.588Z,9.70
2022-12-04T00:52:13.029Z,10.03
2022-12-04T01:02:16.197Z,10.13
2022-12-04T01:12:20.969Z,10.10
2022-12-04T01:22:23.840Z,9.48
2022-12-04T01:32:26.225Z,8.97
2022-12-04T01:42:28.944Z,9.57
2022-12-04T01:52:32.030Z,10.30
2022-12-04T02:02:37.492Z,9.53
2022-12-04T02:12:51.612Z,10.70
2022-12-04T02:23:03.502Z,10.57
2022-12-04T02:33:17.965Z,10.30
2022-12-04T02:43:41.937Z,9.97
2022-12-04T02:54:08.137Z,9.97
2022-12-04T03:04:25.974Z,10.47
2022-12-04T03:14:36.085Z,9.70
2022-12-04T03:24:45.290Z,10.13
2022-12-04T03:35:06.581Z,10.23
2022-12-04T03:45:44.938Z,10.00
2022-12-04T03:55:58.946Z,10.27
2022-12-04T04:06:06.459Z,9.60
2022-12-04T04:16:32.278Z,10.33
2022-12-04T04:37:08.452Z,9.52
2022-12-04T04:47:19.372Z,10.33
2022-12-04T04:57:34.604Z,10.13
2022-12-04T05:07:37.126Z,9.43
2022-12-04T05:17:39.644Z,10.93
2022-12-04T05:27:42.460Z,10.27
2022-12-04T05:37:46.007Z,10.87
2022-12-04T05:47:48.455Z,10.33
2022-12-04T05:57:50.815Z,10.43
2022-12-04T06:07:53.220Z,10.73
2022-12-04T06:17:55.712Z,9.97
2022-12-04T06:27:58.017Z,9.03
2022-12-04T06:38:00.321Z,11.27
2022-12-04T06:48:03.008Z,11.17
2022-12-04T06:58:05.273Z,12.40
2022-12-04T07:08:07.746Z,12.17
2022-12-04T07:18:10.343Z,12.10
2022-12-04T07:28:13.254Z,12.13
2022-12-04T07:38:16.059Z,12.23
2022-12-04T07:48:18.747Z,12.63
2022-12-04T07:58:21.145Z,12.87
2022-12-04T08:08:24.112Z,11.30
2022-12-04T08:18:26.472Z,11.80
2022-12-04T08:28:29.873Z,11.50
2022-12-04T08:38:32.295Z,12.10
2022-12-04T08:48:35.504Z,10.90
2022-12-04T08:58:38.908Z,12.17
2022-12-04T09:08:42.203Z,11.90
2022-12-04T09:18:46.358Z,10.53
2022-12-04T09:28:50.887Z,12.17
2022-12-04T09:38:55.200Z,11.37
2022-12-04T09:49:02.758Z,11.37
2022-12-04T09:59:26.937Z,11.50
2022-12-04T10:09:38.933Z,12.73
2022-12-04T10:19:54.475Z,11.40
2022-12-04T10:30:08.765Z,12.07
2022-12-04T10:40:38.799Z,11.50
2022-12-04T10:50:41.963Z,10.73
2022-12-04T11:00:46.972Z,12.17
2022-12-04T11:11:01.679Z,10.85
2022-12-04T11:21:08.251Z,11.70
2022-12-04T11:31:18.738Z,12.03
2022-12-04T11:41:30.984Z,12.37
2022-12-04T11:51:39.957Z,15.73
2022-12-04T12:02:01.196Z,14.63
2022-12-04T12:12:15.013Z,14.07
2022-12-04T12:22:17.567Z,14.27
2022-12-04T12:32:34.950Z,14.83
2022-12-04T12:42:58.587Z,14.87
2022-12-04T12:53:09.407Z,13.60
2022-12-04T13:03:29.302Z,14.80
2022-12-04T13:13:35.883Z,13.10
2022-12-04T13:23:53.560Z,14.57
2022-12-04T13:34:16.207Z,13.67
2022-12-04T13:44:24.647Z,14.20
2022-12-04T13:54:37.634Z,13.27
2022-12-04T14:04:53.814Z,12.53
2022-12-04T14:15:09.667Z,11.40
2022-12-04T14:25:15.340Z,15.00
2022-12-04T14:35:23.472Z,13.63
2022-12-04T14:45:44.535Z,12.83
2022-12-04T14:56:07.115Z,12.67
2022-12-04T15:06:22.430Z,12.77
2022-12-04T15:16:25.662Z,12.00
2022-12-04T15:26:28.725Z,12.63
2022-12-04T15:36:47.823Z,12.27
2022-12-04T15:46:51.042Z,10.60
2022-12-04T15:57:14.723Z,10.43
2022-12-04T16:07:24.501Z,11.07
2022-12-04T16:17:32.638Z,10.57
2022-12-04T16:27:35.369Z,12.10
2022-12-04T16:37:38.138Z,10.97
2022-12-04T16:47:40.885Z,11.77
2022-12-04T16:57:43.861Z,13.10
2022-12-04T17:07:46.879Z,12.03
2022-12-04T17:17:50.269Z,10.57
2022-12-04T17:27:53.184Z,10.90
2022-12-04T17:37:57.422Z,11.37
2022-12-04T17:48:03.659Z,13.17
2022-12-04T17:58:06.440Z,10.97
2022-12-04T18:08:09.092Z,12.00
2022-12-04T18:18:11.880Z,12.00
2022-12-04T18:28:14.426Z,11.93
2022-12-04T18:38:17.207Z,13.07
2022-12-04T18:48:19.872Z,11.97
2022-12-04T18:58:23.320Z,11.17
2022-12-04T19:08:31.357Z,12.63
2022-12-04T19:18:37.203Z,13.10
2022-12-04T19:28:39.881Z,12.00
2022-12-04T19:38:43.659Z,12.90
2022-12-04T19:48:50.492Z,12.03
2022-12-04T19:58:55.187Z,14.17
2022-12-04T20:09:01.690Z,13.07
2022-12-04T20:19:08.399Z,12.67
2022-12-04T20:29:16.231Z,13.13
2022-12-04T20:39:20.166Z,14.63
2022-12-04T20:49:23.223Z,13.20
2022-12-04T20:59:26.352Z,13.53
2022-12-04T21:09:29.418Z,12.57
2022-12-04T21:19:32.637Z,13.70
2022-12-04T21:29:38.949Z,12.53
2022-12-04T21:39:42.989Z,12.67
2022-12-04T21:49:45.998Z,11.33
2022-12-04T21:59:49.201Z,10.07
2022-12-04T22:09:51.871Z,11.40
2022-12-04T22:19:55.100Z,11.60
2022-12-04T22:29:57.975Z,9.60
2022-12-04T22:40:00.648Z,10.17
2022-12-04T22:50:04.758Z,9.83
2022-12-04T23:00:09.755Z,9.40
2022-12-04T23:10:12.484Z,8.82
2022-12-04T23:20:15.078Z,9.03
2022-12-04T23:30:21.392Z,8.40
2022-12-04T23:40:26.860Z,6.60
2022-12-04T23:50:29.368Z,6.27
